createdAt,value
2022-12-11T00:02:38.401Z,101171.47
2022-12-11T00:05:40.195Z,101165.44
2022-12-11T00:08:41.890Z,101167.19
2022-12-11T00:11:43.445Z,101162.88
2022-12-11T00:14:44.936Z,101157.81
2022-12-11T00:17:46.540Z,101162.09
2022-12-11T00:20:48.059Z,101161.31
2022-12-11T00:23:49.517Z,101158.75
2022-12-11T00:26:51.010Z,101157.06
2022-12-11T00:29:52.468Z,101145.81
2022-12-11T00:32:54.108Z,101147.59
2022-12-11T00:35:55.615Z,101154.53
2022-12-11T00:38:57.079Z,101146.72
2022-12-11T00:41:58.524Z,101158.09
2022-12-11T00:45:00.016Z,101158.94
2022-12-11T00:48:01.449Z,101147.59
2022-12-11T00:51:04.376Z,101153.69
2022-12-11T00:54:05.851Z,101146.78
2022-12-11T00:57:08.775Z,101141.59
2022-12-11T01:00:11.134Z,101146.78
2022-12-11T01:03:14.791Z,101145.09
2022-12-11T01:06:18.973Z,101139.06
2022-12-11T01:09:20.448Z,101143.34
2022-12-11T01:12:21.987Z,101134.72
2022-12-11T01:15:26.160Z,101139.91
2022-12-11T01:18:27.578Z,101145.97
2022-12-11T01:21:29.308Z,101148.53
2022-12-11T01:24:30.828Z,101135.50
2022-12-11T01:27:32.529Z,101144.97
2022-12-11T01:30:34.574Z,101140.69
2022-12-11T01:33:36.794Z,101149.31
2022-12-11T01:36:38.245Z,101151.91
2022-12-11T01:39:39.788Z,101150.16
2022-12-11T01:42:41.808Z,101151.84
2022-12-11T01:45:45.413Z,101158.78
2022-12-11T01:48:47.064Z,101157.88
2022-12-11T01:52:06.468Z,101163.06
2022-12-11T01:55:08.802Z,101159.56
2022-12-11T01:58:12.004Z,101148.31
2022-12-11T02:01:37.659Z,101147.47
2022-12-11T02:04:40.623Z,101144.88
2022-12-11T02:07:52.647Z,101145.81
2022-12-11T02:11:19.500Z,101140.56
2022-12-11T02:14:38.458Z,101132.78
2022-12-11T02:17:48.969Z,101140.56
2022-12-11T02:21:16.879Z,101134.50
2022-12-11T02:24:30.938Z,101142.31
2022-12-11T02:27:46.358Z,101140.53
2022-12-11T02:30:55.211Z,101141.44
2022-12-11T02:34:08.160Z,101137.09
2022-12-11T02:37:16.351Z,101137.88
2022-12-11T02:40:23.706Z,101133.47
2022-12-11T02:43:25.723Z,101137.72
2022-12-11T02:46:28.275Z,101137.66
2022-12-11T02:49:31.648Z,101128.03
2022-12-11T02:52:34.741Z,101128.84
2022-12-11T02:55:38.322Z,101123.69
2022-12-11T02:58:48.347Z,101115.03
2022-12-11T03:01:50.543Z,101109.78
2022-12-11T03:04:52.555Z,101110.53
2022-12-11T03:07:54.155Z,101104.56
2022-12-11T03:10:55.701Z,101110.53
2022-12-11T03:13:57.579Z,101102.75
2022-12-11T03:17:14.910Z,101097.56
2022-12-11T03:20:30.734Z,101095.00
2022-12-11T03:23:42.152Z,101100.25
2022-12-11T03:26:51.849Z,101096.81
2022-12-11T03:30:02.176Z,101091.75
2022-12-11T03:33:09.934Z,101090.78
2022-12-11T03:36:16.983Z,101090.03
2022-12-11T03:39:28.257Z,101092.63
2022-12-11T03:42:31.101Z,101095.31
2022-12-11T03:45:34.192Z,101100.41
2022-12-11T03:48:38.244Z,101097.72
2022-12-11T03:51:41.389Z,101095.97
2022-12-11T03:54:46.751Z,101088.19
2022-12-11T03:57:48.570Z,101092.59
2022-12-11T04:00:50.059Z,101083.91
2022-12-11T04:03:51.569Z,101082.22
2022-12-11T04:06:53.023Z,101089.16
2022-12-11T04:09:54.935Z,101093.50
2022-12-11T04:12:56.488Z,101079.69
2022-12-11T04:15:58.041Z,101083.09
2022-12-11T04:18:59.642Z,101082.28
2022-12-11T04:22:01.139Z,101074.44
2022-12-11T04:25:05.303Z,101070.06
2022-12-11T04:28:06.695Z,101059.75
2022-12-11T04:31:12.933Z,101053.56
2022-12-11T04:34:14.397Z,101056.13
2022-12-11T04:37:15.888Z,101062.22
2022-12-11T04:40:19.233Z,101056.16
2022-12-11T04:43:20.662Z,101068.25
2022-12-11T04:46:24.646Z,101072.59
2022-12-11T04:49:26.213Z,101072.50
2022-12-11T04:52:27.714Z,101082.00
2022-12-11T04:55:29.179Z,101084.59
2022-12-11T04:58:30.658Z,101088.00
2022-12-11T05:01:32.113Z,101086.28
2022-12-11T05:04:35.022Z,101081.13
2022-12-11T05:07:37.227Z,101081.09
2022-12-11T05:10:38.660Z,101089.78
2022-12-11T05:13:41.055Z,101086.34
2022-12-11T05:16:42.517Z,101082.00
2022-12-11T05:19:44.026Z,101082.88
2022-12-11T05:22:45.577Z,101069.91
2022-12-11T05:25:54.509Z,101077.78
2022-12-11T05:28:56.299Z,101082.13
2022-12-11T05:31:57.714Z,101069.03
2022-12-11T05:34:59.317Z,101068.16
2022-12-11T05:38:00.805Z,101060.31
2022-12-11T05:41:05.418Z,101055.94
2022-12-11T05:44:06.920Z,101062.81
2022-12-11T05:47:08.397Z,101059.25
2022-12-11T05:50:10.057Z,101058.34
2022-12-11T05:53:11.615Z,101055.66
2022-12-11T05:56:15.693Z,101054.97
2022-12-11T05:59:17.208Z,101062.69
2022-12-11T06:02:18.863Z,101061.03
2022-12-11T06:05:20.358Z,101057.59
2022-12-11T06:08:21.887Z,101057.56
2022-12-11T06:11:24.624Z,101065.28
2022-12-11T06:14:26.298Z,101068.78
2022-12-11T06:17:27.839Z,101068.78
2022-12-11T06:20:32.410Z,101065.38
2022-12-11T06:23:33.822Z,101068.00
2022-12-11T06:26:35.264Z,101072.28
2022-12-11T06:29:36.702Z,101074.88
2022-12-11T06:32:38.169Z,101071.38
2022-12-11T06:35:42.330Z,101067.81
2022-12-11T06:38:44.775Z,101076.50
2022-12-11T06:41:46.331Z,101071.31
2022-12-11T06:44:47.783Z,101071.38
2022-12-11T06:47:49.217Z,101064.38
2022-12-11T06:50:50.864Z,101066.13
2022-12-11T06:53:54.294Z,101064.38
2022-12-11T06:56:55.741Z,101055.66
2022-12-11T06:59:57.211Z,101064.28
2022-12-11T07:02:58.653Z,101065.97
2022-12-11T07:06:01.571Z,101066.91
2022-12-11T07:09:06.839Z,101062.53
2022-12-11T07:12:08.302Z,101062.47
2022-12-11T07:15:10.501Z,101066.84
2022-12-11T07:18:12.468Z,101061.66
2022-12-11T07:21:14.834Z,101062.47
2022-12-11T07:24:16.501Z,101058.09
2022-12-11T07:27:17.993Z,101069.34
2022-12-11T07:30:40.946Z,101069.34
2022-12-11T07:33:43.024Z,101069.31
2022-12-11T07:36:47.283Z,101070.09
2022-12-11T07:39:55.916Z,101067.56
2022-12-11T07:43:10.235Z,101077.09
2022-12-11T07:46:14.698Z,101077.94
2022-12-11T07:49:16.641Z,101080.56
2022-12-11T07:52:18.571Z,101083.16
2022-12-11T07:55:20.754Z,101078.84
2022-12-11T07:58:22.408Z,101092.75
2022-12-11T08:01:25.712Z,101097.16
2022-12-11T08:04:27.160Z,101102.44
2022-12-11T08:07:28.623Z,101097.25
2022-12-11T08:10:30.099Z,101102.44
2022-12-11T08:13:32.194Z,101102.53
2022-12-11T08:16:33.762Z,101092.16
2022-12-11T08:19:35.221Z,101090.47
2022-12-11T08:22:36.729Z,101093.06
2022-12-11T08:25:41.126Z,101087.03
2022-12-11T08:28:42.855Z,101084.38
2022-12-11T08:31:44.974Z,101090.47
2022-12-11T08:34:51.463Z,101086.97
2022-12-11T08:37:53.140Z,101095.75
2022-12-11T08:40:54.922Z,101105.38
2022-12-11T08:43:57.989Z,101095.03
2022-12-11T08:47:00.466Z,101086.34
2022-12-11T08:50:03.108Z,101083.84
2022-12-11T08:53:05.218Z,101093.44
2022-12-11T08:56:12.750Z,101085.78
2022-12-11T08:59:17.509Z,101083.97
2022-12-11T09:02:20.299Z,101092.66
2022-12-11T09:05:22.554Z,101094.38
2022-12-11T09:08:24.662Z,101091.75
2022-12-11T09:11:30.275Z,101092.63
2022-12-11T09:14:32.598Z,101098.69
2022-12-11T09:17:34.938Z,101090.91
2022-12-11T09:20:39.256Z,101082.22
2022-12-11T09:23:44.475Z,101078.78
2022-12-11T09:26:46.842Z,101086.72
2022-12-11T09:29:49.241Z,101083.28
2022-12-11T09:32:53.541Z,101079.00
2022-12-11T09:35:59.705Z,101084.41
2022-12-11T09:39:06.484Z,101077.56
2022-12-11T09:42:40.847Z,101076.66
2022-12-11T09:45:42.329Z,101085.38
2022-12-11T09:48:47.436Z,101079.41
2022-12-11T09:52:02.246Z,101076.97
2022-12-11T09:55:21.833Z,101075.31
2022-12-11T09:58:29.617Z,101069.25
2022-12-11T10:01:45.847Z,101074.47
2022-12-11T10:05:17.524Z,101074.38
2022-12-11T10:08:19.033Z,101081.34
2022-12-11T10:11:42.111Z,101070.81
2022-12-11T10:14:53.079Z,101070.75
2022-12-11T10:18:04.483Z,101075.25
2022-12-11T10:21:07.210Z,101073.56
2022-12-11T10:24:40.837Z,101065.97
2022-12-11T10:27:41.275Z,101061.69
2022-12-11T10:30:50.792Z,101068.47
2022-12-11T10:34:08.778Z,101057.09
2022-12-11T10:37:10.272Z,101057.94
2022-12-11T10:40:12.874Z,101052.94
2022-12-11T10:43:14.389Z,101052.22
2022-12-11T10:46:19.518Z,101040.03
2022-12-11T10:49:29.467Z,101043.56
2022-12-11T10:52:44.539Z,101041.13
2022-12-11T10:55:48.288Z,101041.13
2022-12-11T10:58:50.373Z,101043.72
2022-12-11T11:01:51.939Z,101032.50
2022-12-11T11:04:55.447Z,101031.59
2022-12-11T11:08:23.015Z,101032.59
2022-12-11T11:11:35.728Z,101034.28
2022-12-11T11:14:39.055Z,101031.78
2022-12-11T11:18:12.279Z,101033.59
2022-12-11T11:21:18.904Z,101025.13
2022-12-11T11:24:43.509Z,101026.75
2022-12-11T11:27:51.012Z,101023.41
2022-12-11T11:31:07.743Z,101035.50
2022-12-11T11:34:20.268Z,101033.78
2022-12-11T11:37:31.344Z,101036.44
2022-12-11T11:40:48.289Z,101026.84
2022-12-11T11:43:54.213Z,101027.69
2022-12-11T11:47:00.373Z,101019.81
2022-12-11T11:50:24.425Z,101018.09
2022-12-11T11:53:35.209Z,101020.53
2022-12-11T11:56:37.777Z,101016.19
2022-12-11T11:59:50.916Z,101014.38
2022-12-11T12:02:59.584Z,101014.34
2022-12-11T12:06:13.435Z,101013.50
2022-12-11T12:09:25.676Z,101008.28
2022-12-11T12:12:35.661Z,101005.84
2022-12-11T12:15:40.216Z,101004.84
2022-12-11T12:18:44.452Z,101016.88
2022-12-11T12:21:49.271Z,101014.28
2022-12-11T12:24:56.795Z,101010.75
2022-12-11T12:28:04.533Z,101008.13
2022-12-11T12:31:39.880Z,101008.22
2022-12-11T12:35:07.035Z,101003.97
2022-12-11T12:38:21.700Z,101006.59
2022-12-11T12:41:55.783Z,100996.13
2022-12-11T12:45:15.358Z,100995.28
2022-12-11T12:48:17.243Z,101004.00
2022-12-11T12:51:19.339Z,101002.38
2022-12-11T12:54:21.987Z,101002.38
2022-12-11T12:57:23.626Z,101005.84
2022-12-11T13:00:38.788Z,100996.38
2022-12-11T13:03:57.152Z,100999.88
2022-12-11T13:06:58.715Z,100991.22
2022-12-11T13:10:05.461Z,100992.75
2022-12-11T13:13:36.955Z,100986.59
2022-12-11T13:16:41.305Z,100984.88
2022-12-11T13:19:43.019Z,100990.28
2022-12-11T13:23:18.516Z,100996.19
2022-12-11T13:26:33.611Z,100988.38
2022-12-11T13:29:36.602Z,101003.09
2022-12-11T13:32:38.173Z,101010.84
2022-12-11T13:35:40.323Z,101009.88
2022-12-11T13:38:58.907Z,101011.53
2022-12-11T13:42:07.230Z,101007.13
2022-12-11T13:45:18.686Z,101004.47
2022-12-11T13:48:28.688Z,101005.31
2022-12-11T13:51:31.765Z,101007.81
2022-12-11T13:54:35.225Z,101002.59
2022-12-11T13:57:45.004Z,101004.28
2022-12-11T14:01:06.704Z,101004.28
2022-12-11T14:04:14.582Z,101006.88
2022-12-11T14:07:30.633Z,101004.19
2022-12-11T14:10:32.825Z,101010.22
2022-12-11T14:13:37.291Z,101006.75
2022-12-11T14:16:39.305Z,101002.41
2022-12-11T14:19:47.178Z,101009.31
2022-12-11T14:22:48.956Z,101010.94
2022-12-11T14:25:55.548Z,101014.44
2022-12-11T14:28:57.124Z,101018.78
2022-12-11T14:32:02.971Z,101011.84
2022-12-11T14:35:08.783Z,101009.25
2022-12-11T14:38:16.983Z,100999.66
2022-12-11T14:41:26.954Z,101010.03
2022-12-11T14:44:34.891Z,101006.56
2022-12-11T14:47:42.911Z,101015.22
2022-12-11T14:50:49.428Z,101012.63
2022-12-11T14:53:53.999Z,101016.91
2022-12-11T14:57:19.442Z,101022.97
2022-12-11T15:00:44.224Z,101023.81
2022-12-11T15:03:46.300Z,101027.31
2022-12-11T15:06:49.984Z,101031.59
2022-12-11T15:09:57.710Z,101034.13
2022-12-11T15:13:00.468Z,101041.97
2022-12-11T15:16:03.012Z,101038.41
2022-12-11T15:19:04.740Z,101040.03
2022-12-11T15:22:09.427Z,101028.78
2022-12-11T15:25:24.186Z,101024.44
2022-12-11T15:28:35.102Z,101033.94
2022-12-11T15:31:36.642Z,101026.19
2022-12-11T15:34:45.682Z,101033.09
2022-12-11T15:37:56.065Z,101033.09
2022-12-11T15:40:58.091Z,101027.00
2022-12-11T15:44:02.319Z,101037.38
2022-12-11T15:47:12.650Z,101031.28
2022-12-11T15:50:22.838Z,101035.63
2022-12-11T15:53:24.327Z,101039.94
2022-12-11T15:56:26.051Z,101037.38
2022-12-11T15:59:27.659Z,101045.16
2022-12-11T16:02:29.167Z,101045.94
2022-12-11T16:05:31.320Z,101049.38
2022-12-11T16:08:32.903Z,101058.84
2022-12-11T16:11:34.487Z,101052.66
2022-12-11T16:14:36.291Z,101060.41
2022-12-11T16:17:38.384Z,101055.22
2022-12-11T16:20:40.967Z,101055.19
2022-12-11T16:23:42.497Z,101050.78
2022-12-11T16:26:43.971Z,101057.63
2022-12-11T16:29:45.585Z,101057.59
2022-12-11T16:32:47.071Z,101048.03
2022-12-11T16:35:48.599Z,101044.53
2022-12-11T16:38:53.965Z,101047.94
2022-12-11T16:41:55.877Z,101045.38
2022-12-11T16:45:07.584Z,101049.66
2022-12-11T16:48:27.544Z,101055.66
2022-12-11T16:51:30.515Z,101053.00
2022-12-11T16:54:32.222Z,101047.88
2022-12-11T16:57:33.829Z,101050.41
2022-12-11T17:00:35.367Z,101045.22
2022-12-11T17:03:36.798Z,101044.34
2022-12-11T17:06:38.981Z,101046.91
2022-12-11T17:09:45.855Z,101047.72
2022-12-11T17:12:47.387Z,101055.53
2022-12-11T17:15:48.881Z,101050.31
2022-12-11T17:18:50.505Z,101051.16
2022-12-11T17:21:52.258Z,101044.22
2022-12-11T17:24:53.873Z,101047.69
2022-12-11T17:27:55.385Z,101045.16
2022-12-11T17:30:57.860Z,101048.53
2022-12-11T17:33:59.749Z,101046.81
2022-12-11T17:37:01.261Z,101046.13
2022-12-11T17:40:02.996Z,101045.97
2022-12-11T17:43:04.445Z,101049.34
2022-12-11T17:46:06.775Z,101052.75
2022-12-11T17:49:09.190Z,101047.59
2022-12-11T17:52:11.623Z,101049.25
2022-12-11T17:55:13.344Z,101051.75
2022-12-11T17:58:17.566Z,101052.69
2022-12-11T18:01:19.700Z,101050.91
2022-12-11T18:04:21.190Z,101060.44
2022-12-11T18:07:22.696Z,101047.47
2022-12-11T18:10:24.272Z,101048.31
2022-12-11T18:13:25.748Z,101050.84
2022-12-11T18:16:36.454Z,101051.66
2022-12-11T18:19:42.815Z,101054.19
2022-12-11T18:22:47.539Z,101042.03
2022-12-11T18:25:49.111Z,101046.31
2022-12-11T18:28:53.207Z,101054.03
2022-12-11T18:31:54.661Z,101048.00
2022-12-11T18:34:56.206Z,101046.25
2022-12-11T18:37:57.784Z,101050.59
2022-12-11T18:41:03.005Z,101049.69
2022-12-11T18:44:09.566Z,101053.13
2022-12-11T18:47:11.918Z,101054.94
2022-12-11T18:50:13.465Z,101060.13
2022-12-11T18:53:15.771Z,101061.91
2022-12-11T18:56:19.130Z,101067.09
2022-12-11T18:59:20.638Z,101058.44
2022-12-11T19:02:22.933Z,101061.03
2022-12-11T19:05:24.441Z,101059.28
2022-12-11T19:08:26.362Z,101051.50
2022-12-11T19:11:30.240Z,101061.91
2022-12-11T19:14:31.805Z,101057.56
2022-12-11T19:17:33.328Z,101051.44
2022-12-11T19:21:03.268Z,101054.84
2022-12-11T19:24:01.203Z,101054.78
2022-12-11T19:27:02.920Z,101047.84
2022-12-11T19:30:05.861Z,101059.13
2022-12-11T19:33:07.359Z,101059.06
2022-12-11T19:36:11.272Z,101062.50
2022-12-11T19:39:13.484Z,101059.03
2022-12-11T19:42:15.017Z,101055.53
2022-12-11T19:45:16.558Z,101063.31
2022-12-11T19:48:17.997Z,101051.19
2022-12-11T19:51:31.200Z,101054.63
2022-12-11T19:54:32.724Z,101053.78
2022-12-11T19:57:34.533Z,101055.53
2022-12-11T20:00:37.567Z,101063.31
2022-12-11T20:03:39.078Z,101059.81
2022-12-11T20:06:43.096Z,101057.19
2022-12-11T20:09:45.194Z,101056.34
2022-12-11T20:12:46.704Z,101055.53
2022-12-11T20:15:48.686Z,101059.81
2022-12-11T20:18:50.141Z,101065.81
2022-12-11T20:21:51.568Z,101060.63
2022-12-11T20:24:53.089Z,101059.72
2022-12-11T20:27:55.256Z,101066.66
2022-12-11T20:31:06.894Z,101058.88
2022-12-11T20:34:08.511Z,101062.31
2022-12-11T20:37:10.069Z,101052.69
2022-12-11T20:40:12.257Z,101050.09
2022-12-11T20:43:13.838Z,101049.25
2022-12-11T20:46:16.981Z,101047.41
2022-12-11T20:49:18.468Z,101065.63
2022-12-11T20:52:20.058Z,101073.34
2022-12-11T20:55:21.519Z,101078.59
2022-12-11T20:58:23.837Z,101076.84
2022-12-11T21:01:28.990Z,101085.53
2022-12-11T21:04:34.697Z,101089.84
2022-12-11T21:07:36.564Z,101087.22
2022-12-11T21:10:44.221Z,101088.06
2022-12-11T21:13:45.781Z,101080.28
2022-12-11T21:16:47.420Z,101080.31
2022-12-11T21:19:48.986Z,101085.53
2022-12-11T21:22:50.464Z,101082.94
2022-12-11T21:25:52.709Z,101083.78
2022-12-11T21:28:54.176Z,101075.97
2022-12-11T21:31:56.029Z,101086.31
2022-12-11T21:34:57.518Z,101081.13
2022-12-11T21:37:59.078Z,101069.88
2022-12-11T21:41:27.387Z,101074.22
2022-12-11T21:47:50.690Z,101075.97
2022-12-11T21:50:52.165Z,101076.84
2022-12-11T21:53:53.920Z,101073.38
2022-12-11T21:56:55.483Z,101078.59
2022-12-11T21:59:56.965Z,101075.94
2022-12-11T22:02:58.459Z,101082.03
2022-12-11T22:05:59.885Z,101089.72
2022-12-11T22:09:01.617Z,101086.31
2022-12-11T22:12:03.367Z,101093.25
2022-12-11T22:15:05.531Z,101089.72
2022-12-11T22:18:07.032Z,101089.72
2022-12-11T22:21:08.504Z,101087.16
2022-12-11T22:24:10.043Z,101093.22
2022-12-11T22:27:11.546Z,101088.03
2022-12-11T22:30:13.374Z,101102.69
2022-12-11T22:33:14.976Z,101092.31
2022-12-11T22:36:16.714Z,101101.88
2022-12-11T22:39:18.184Z,101101.00
2022-12-11T22:42:19.756Z,101098.44
2022-12-11T22:45:21.230Z,101102.69
2022-12-11T22:48:22.687Z,101100.16
2022-12-11T22:51:24.226Z,101103.63
2022-12-11T22:54:25.880Z,101100.16
2022-12-11T22:57:27.308Z,101098.41
2022-12-11T23:00:28.812Z,101092.31
2022-12-11T23:03:30.424Z,101094.91
2022-12-11T23:06:32.043Z,101101.84
2022-12-11T23:09:33.753Z,101098.41
2022-12-11T23:12:35.917Z,101106.13
2022-12-11T23:15:37.407Z,101102.78
2022-12-11T23:18:39.035Z,101104.44
2022-12-11T23:21:41.060Z,101107.88
2022-12-11T23:24:42.588Z,101103.53
2022-12-11T23:27:44.460Z,101102.63
2022-12-11T23:30:45.935Z,101104.38
2022-12-11T23:33:47.491Z,101104.38
2022-12-11T23:36:49.055Z,101106.09
2022-12-11T23:39:50.695Z,101106.13
2022-12-11T23:42:52.192Z,101113.06
2022-12-11T23:45:54.134Z,101108.78
2022-12-11T23:48:55.983Z,101109.63
2022-12-11T23:51:57.443Z,101108.78
2022-12-11T23:54:58.973Z,101108.78
2022-12-11T23:58:00.498Z,101107.06
